Terminal Aerodrome Forecast
Issued by NWS

Home | Current Version | Previous Version | Text Only | Print | Product List | Glossary On
Versions: 1 2 3 4 5 6 7 8 9 10 11 12
000
FTUS46 KMTR 251120
TAFOAK
TAF
KOAK 251120Z 2512/2618 29006KT P6SM BKN012
     FM251600 29005KT P6SM SCT013
      TEMPO 2516/2517 BKN014
     FM252000 30012KT P6SM FEW015
     FM260500 29007KT P6SM BKN014
     FM261000 30005KT P6SM OVC013
     FM261700 28007KT P6SM SCT014=

USA.gov is the U.S. government's official web portal to all federal, state and local government web resources and services.